createdAt,value
2018-12-27T00:00:55.695Z,0.00
2018-12-27T00:01:55.751Z,0.00
2018-12-27T00:02:55.795Z,0.00
2018-12-27T00:03:55.890Z,0.00
2018-12-27T00:04:55.902Z,0.00
2018-12-27T00:05:55.949Z,0.00
2018-12-27T00:06:55.968Z,0.00
2018-12-27T00:07:56.027Z,0.00
2018-12-27T00:08:56.085Z,0.00
2018-12-27T00:09:56.158Z,0.00
2018-12-27T00:10:56.202Z,0.00
2018-12-27T00:11:56.203Z,0.00
2018-12-27T00:12:56.279Z,0.00
2018-12-27T00:13:56.302Z,0.00
2018-12-27T00:14:56.349Z,0.00
2018-12-27T00:15:56.417Z,0.00
2018-12-27T00:16:56.438Z,0.00
2018-12-27T00:17:56.500Z,0.00
2018-12-27T00:18:56.598Z,0.00
2018-12-27T00:19:56.601Z,0.00
2018-12-27T00:20:56.702Z,0.00
2018-12-27T00:21:56.662Z,0.00
2018-12-27T00:22:56.728Z,0.00
2018-12-27T00:23:56.777Z,0.00
2018-12-27T00:24:56.827Z,0.00
2018-12-27T00:25:56.912Z,0.00
2018-12-27T00:26:56.920Z,0.00
2018-12-27T00:27:57.005Z,0.00
2018-12-27T00:28:57.009Z,0.00
2018-12-27T00:29:57.041Z,0.00
2018-12-27T00:30:57.108Z,0.00
2018-12-27T00:31:57.137Z,0.00
2018-12-27T00:33:03.084Z,0.00
2018-12-27T00:33:57.233Z,0.00
2018-12-27T00:34:57.283Z,0.00
2018-12-27T00:35:57.308Z,0.00
2018-12-27T00:36:58.879Z,0.00
2018-12-27T00:37:57.436Z,0.00
2018-12-27T00:38:57.512Z,0.00
2018-12-27T00:39:57.517Z,0.00
2018-12-27T00:40:57.560Z,0.00
2018-12-27T00:41:57.601Z,0.00
2018-12-27T00:42:57.650Z,0.00
2018-12-27T00:43:57.708Z,0.00
2018-12-27T00:44:57.747Z,0.00
2018-12-27T00:45:57.806Z,0.00
2018-12-27T00:46:57.841Z,0.00
2018-12-27T00:47:57.925Z,0.00
2018-12-27T00:48:57.939Z,0.00
2018-12-27T00:49:57.972Z,0.00
2018-12-27T00:50:58.029Z,0.00
2018-12-27T00:51:58.054Z,0.00
2018-12-27T00:52:58.102Z,0.00
2018-12-27T00:53:58.161Z,0.00
2018-12-27T00:54:58.229Z,0.00
2018-12-27T00:55:58.257Z,0.00
2018-12-27T00:56:58.315Z,0.00
2018-12-27T00:57:58.357Z,0.00
2018-12-27T00:58:58.403Z,0.00
2018-12-27T00:59:58.430Z,0.00
2018-12-27T01:00:58.484Z,0.00
2018-12-27T01:01:58.532Z,0.00
2018-12-27T01:02:58.594Z,0.00
2018-12-27T01:03:58.621Z,0.00
2018-12-27T01:04:58.670Z,0.00
2018-12-27T01:05:58.724Z,0.00
2018-12-27T01:06:58.777Z,0.00
2018-12-27T01:07:58.817Z,0.00
2018-12-27T01:08:58.881Z,0.00
2018-12-27T01:09:58.938Z,0.00
2018-12-27T01:10:58.941Z,0.00
2018-12-27T01:11:58.981Z,0.00
2018-12-27T01:12:59.053Z,0.00
2018-12-27T01:13:59.325Z,0.00
2018-12-27T01:14:59.188Z,0.00
2018-12-27T01:15:59.193Z,0.00
2018-12-27T01:16:59.228Z,0.00
2018-12-27T01:17:59.288Z,0.00
2018-12-27T01:18:59.333Z,0.00
2018-12-27T01:19:59.372Z,0.00
2018-12-27T01:20:59.428Z,0.00
2018-12-27T01:21:59.474Z,0.00
2018-12-27T01:22:59.510Z,0.00
2018-12-27T01:23:59.556Z,0.00
2018-12-27T01:24:59.595Z,0.00
2018-12-27T01:25:59.646Z,0.00
2018-12-27T01:26:59.679Z,0.00
2018-12-27T01:27:59.736Z,0.00
2018-12-27T01:28:59.794Z,0.00
2018-12-27T01:29:59.839Z,0.00
2018-12-27T01:30:59.880Z,0.00
2018-12-27T01:31:59.915Z,0.00
2018-12-27T01:32:59.980Z,0.00
2018-12-27T01:34:00.023Z,0.00
2018-12-27T01:35:00.154Z,0.00
2018-12-27T01:36:00.111Z,0.00
2018-12-27T01:37:00.146Z,0.00
2018-12-27T01:38:00.196Z,0.00
2018-12-27T01:39:00.256Z,0.00
2018-12-27T01:40:00.276Z,0.00
2018-12-27T01:41:00.344Z,0.00
2018-12-27T01:42:00.386Z,0.00
2018-12-27T01:43:00.409Z,0.00
2018-12-27T01:44:00.489Z,0.00
2018-12-27T01:45:00.539Z,0.00
2018-12-27T01:46:00.553Z,0.00
2018-12-27T01:47:00.625Z,0.00
2018-12-27T01:48:00.656Z,0.00
2018-12-27T01:49:00.703Z,0.00
2018-12-27T01:50:00.758Z,0.00
2018-12-27T01:51:00.813Z,0.00
2018-12-27T01:52:00.860Z,0.00
2018-12-27T01:53:00.896Z,0.00
2018-12-27T01:54:00.943Z,0.00
2018-12-27T01:55:00.988Z,0.00
2018-12-27T01:56:01.054Z,0.00
2018-12-27T01:57:01.083Z,0.00
2018-12-27T01:58:01.108Z,0.00
2018-12-27T01:59:01.199Z,0.00
2018-12-27T02:00:01.267Z,0.00
2018-12-27T02:01:01.304Z,0.00
2018-12-27T02:02:01.328Z,0.00
2018-12-27T02:03:01.349Z,0.00
2018-12-27T02:04:01.404Z,0.00
2018-12-27T02:05:01.543Z,0.00
2018-12-27T02:06:01.486Z,0.00
2018-12-27T02:07:01.526Z,0.00
2018-12-27T02:08:01.585Z,0.00
2018-12-27T02:09:01.635Z,0.00
2018-12-27T02:10:01.679Z,0.00
2018-12-27T02:11:01.735Z,0.00
2018-12-27T02:12:01.749Z,0.00
2018-12-27T02:13:01.804Z,0.00
2018-12-27T02:14:01.861Z,0.00
2018-12-27T02:15:01.890Z,0.00
2018-12-27T02:16:01.951Z,0.00
2018-12-27T02:17:01.985Z,0.00
2018-12-27T02:18:02.036Z,0.00
2018-12-27T02:19:02.084Z,0.00
2018-12-27T02:20:02.133Z,0.00
2018-12-27T02:21:02.179Z,0.00
2018-12-27T02:22:02.234Z,0.00
2018-12-27T02:23:02.268Z,0.00
2018-12-27T02:24:02.313Z,0.00
2018-12-27T02:25:02.395Z,0.00
2018-12-27T02:26:02.434Z,0.00
2018-12-27T02:27:02.438Z,0.00
2018-12-27T02:28:02.485Z,0.00
2018-12-27T02:29:02.536Z,0.00
2018-12-27T02:30:02.599Z,0.00
2018-12-27T02:31:02.640Z,0.00
2018-12-27T02:32:02.678Z,0.00
2018-12-27T02:33:02.733Z,0.00
2018-12-27T02:34:02.748Z,0.00
2018-12-27T02:35:02.845Z,0.00
2018-12-27T02:36:02.847Z,0.00
2018-12-27T02:37:02.912Z,0.00
2018-12-27T02:38:02.968Z,0.00
2018-12-27T02:39:02.999Z,0.00
2018-12-27T02:40:03.075Z,0.00
2018-12-27T02:41:03.080Z,0.00
2018-12-27T02:42:03.118Z,0.00
2018-12-27T02:43:03.191Z,0.00
2018-12-27T02:44:03.227Z,0.00
2018-12-27T02:45:03.272Z,0.00
2018-12-27T02:46:03.295Z,0.00
2018-12-27T02:47:03.352Z,0.00
2018-12-27T02:48:03.418Z,0.00
2018-12-27T02:49:03.423Z,0.00
2018-12-27T02:50:03.487Z,0.00
2018-12-27T02:51:03.539Z,0.00
2018-12-27T02:52:03.575Z,0.00
2018-12-27T02:53:03.616Z,0.00
2018-12-27T02:54:03.670Z,0.00
2018-12-27T02:55:03.694Z,0.00
2018-12-27T02:56:03.747Z,0.00
2018-12-27T02:57:03.819Z,0.00
2018-12-27T02:58:03.879Z,0.00
2018-12-27T02:59:03.900Z,0.00
2018-12-27T03:00:03.968Z,0.00
2018-12-27T03:01:04.060Z,0.00
2018-12-27T03:02:04.039Z,0.00
2018-12-27T03:03:04.083Z,0.00
2018-12-27T03:04:04.149Z,0.00
2018-12-27T03:05:04.179Z,0.00
2018-12-27T03:06:04.223Z,0.00
2018-12-27T03:07:04.258Z,0.00
2018-12-27T03:08:04.294Z,0.00
2018-12-27T03:09:04.364Z,0.00
2018-12-27T03:10:04.424Z,0.00
2018-12-27T03:11:04.454Z,0.00
2018-12-27T03:12:04.511Z,0.00
2018-12-27T03:13:04.544Z,0.00
2018-12-27T03:14:04.629Z,0.00
2018-12-27T03:15:04.637Z,0.00
2018-12-27T03:16:04.695Z,0.00
2018-12-27T03:17:04.737Z,0.00
2018-12-27T03:18:04.796Z,0.00
2018-12-27T03:19:04.817Z,0.00
2018-12-27T03:20:04.855Z,0.00
2018-12-27T03:21:04.908Z,0.00
2018-12-27T03:22:04.975Z,0.00
2018-12-27T03:23:04.985Z,0.00
2018-12-27T03:24:05.064Z,0.00
2018-12-27T03:25:05.091Z,0.00
2018-12-27T03:26:05.193Z,0.00
2018-12-27T03:27:05.189Z,0.00
2018-12-27T03:28:05.292Z,0.00
2018-12-27T03:29:05.278Z,0.00
2018-12-27T03:30:05.322Z,0.00
2018-12-27T03:31:05.417Z,0.00
2018-12-27T03:32:05.429Z,0.00
2018-12-27T03:33:05.537Z,0.00
2018-12-27T03:34:05.498Z,0.00
2018-12-27T03:35:05.564Z,0.00
2018-12-27T03:36:05.606Z,0.00
2018-12-27T03:37:05.647Z,0.00
2018-12-27T03:38:05.698Z,0.00
2018-12-27T03:39:05.759Z,0.00
2018-12-27T03:40:05.781Z,0.00
2018-12-27T03:41:05.824Z,0.00
2018-12-27T03:42:05.916Z,0.00
2018-12-27T03:43:05.923Z,0.00
2018-12-27T03:44:05.954Z,0.00
2018-12-27T03:45:06.031Z,0.00
2018-12-27T03:46:06.110Z,0.00
2018-12-27T03:47:06.117Z,0.00
2018-12-27T03:48:06.194Z,0.00
2018-12-27T03:49:06.203Z,0.00
2018-12-27T03:50:06.246Z,0.00
2018-12-27T03:51:06.287Z,0.00
2018-12-27T03:52:06.362Z,0.00
2018-12-27T03:53:06.379Z,0.00
2018-12-27T03:54:06.698Z,0.00
2018-12-27T03:55:06.492Z,0.00
2018-12-27T03:56:06.533Z,0.00
2018-12-27T03:57:06.559Z,0.00
2018-12-27T03:58:06.630Z,0.00
2018-12-27T03:59:06.675Z,0.00
2018-12-27T04:00:06.689Z,0.00
2018-12-27T04:01:06.782Z,0.00
2018-12-27T04:02:06.850Z,0.00
2018-12-27T04:03:06.975Z,0.00
2018-12-27T04:04:06.930Z,0.00
2018-12-27T04:05:06.934Z,0.00
2018-12-27T04:06:06.998Z,0.00
2018-12-27T04:07:07.018Z,0.00
2018-12-27T04:08:07.076Z,0.00
2018-12-27T04:09:07.131Z,0.00
2018-12-27T04:10:07.160Z,0.00
2018-12-27T04:11:07.218Z,0.00
2018-12-27T04:12:07.269Z,0.00
2018-12-27T04:13:07.310Z,0.00
2018-12-27T04:14:07.373Z,0.00
2018-12-27T04:15:07.395Z,0.00
2018-12-27T04:16:07.443Z,0.00
2018-12-27T04:17:07.496Z,0.00
2018-12-27T04:18:07.537Z,0.00
2018-12-27T04:19:07.576Z,0.00
2018-12-27T04:20:07.631Z,0.00
2018-12-27T04:21:07.658Z,0.00
2018-12-27T04:22:07.763Z,0.00
2018-12-27T04:23:07.821Z,0.00
2018-12-27T04:24:07.851Z,0.00
2018-12-27T04:25:07.892Z,0.00
2018-12-27T04:26:07.914Z,0.00
2018-12-27T04:27:07.953Z,0.00
2018-12-27T04:28:07.983Z,0.00
2018-12-27T04:29:08.082Z,0.00
2018-12-27T04:30:08.091Z,0.00
2018-12-27T04:31:08.130Z,0.00
2018-12-27T04:32:08.195Z,0.00
2018-12-27T04:33:08.221Z,0.00
2018-12-27T04:34:09.697Z,0.00
2018-12-27T04:35:08.367Z,0.00
2018-12-27T04:36:08.353Z,0.00
2018-12-27T04:37:08.417Z,0.00
2018-12-27T04:38:08.442Z,0.00
2018-12-27T04:39:08.501Z,0.00
2018-12-27T04:40:08.537Z,0.00
2018-12-27T04:41:08.596Z,0.00
2018-12-27T04:42:08.636Z,0.00
2018-12-27T04:43:08.690Z,0.00
2018-12-27T04:44:08.742Z,0.00
2018-12-27T04:45:08.810Z,0.00
2018-12-27T04:46:08.816Z,0.00
2018-12-27T04:47:08.876Z,0.00
2018-12-27T04:48:08.910Z,0.00
2018-12-27T04:49:08.937Z,0.00
2018-12-27T04:50:09.017Z,0.00
2018-12-27T04:51:09.067Z,0.00
2018-12-27T04:52:09.102Z,0.00
2018-12-27T04:53:09.138Z,0.00
2018-12-27T04:54:09.199Z,0.00
2018-12-27T04:55:09.245Z,0.00
2018-12-27T04:56:09.272Z,0.00
2018-12-27T04:57:09.327Z,0.00
2018-12-27T04:58:09.398Z,0.00
2018-12-27T04:59:09.430Z,0.00
2018-12-27T05:00:09.479Z,0.00
2018-12-27T05:01:09.508Z,0.00
2018-12-27T05:02:09.567Z,0.00
2018-12-27T05:03:09.630Z,0.00
2018-12-27T05:04:17.823Z,0.00
2018-12-27T05:05:09.704Z,0.00
2018-12-27T05:06:09.745Z,0.00
2018-12-27T05:07:09.762Z,0.00
2018-12-27T05:08:09.818Z,0.00
2018-12-27T05:09:09.879Z,0.00
2018-12-27T05:10:09.959Z,0.00
2018-12-27T05:11:10.021Z,0.00
2018-12-27T05:12:10.035Z,0.00
2018-12-27T05:13:10.101Z,0.00
2018-12-27T05:14:10.115Z,0.00
2018-12-27T05:15:10.150Z,0.00
2018-12-27T05:16:10.205Z,0.00
2018-12-27T05:17:10.238Z,0.00
2018-12-27T05:18:10.272Z,0.00
2018-12-27T05:19:10.324Z,0.00
2018-12-27T05:20:10.379Z,0.00
2018-12-27T05:21:10.438Z,0.00
2018-12-27T05:22:10.478Z,0.00
2018-12-27T05:23:10.553Z,0.00
2018-12-27T05:24:10.583Z,0.00
2018-12-27T05:25:10.605Z,0.00
2018-12-27T05:26:10.641Z,0.00
2018-12-27T05:27:10.697Z,0.00
2018-12-27T05:28:10.735Z,0.00
2018-12-27T05:29:10.794Z,0.00
2018-12-27T05:30:10.835Z,0.00
2018-12-27T05:31:10.899Z,0.00
2018-12-27T05:32:10.947Z,0.00
2018-12-27T05:33:10.970Z,0.00
2018-12-27T05:34:11.031Z,0.00
2018-12-27T05:35:11.045Z,0.00
2018-12-27T05:36:11.155Z,0.00
2018-12-27T05:37:11.137Z,0.00
2018-12-27T05:38:11.207Z,0.00
2018-12-27T05:39:11.254Z,0.00
2018-12-27T05:40:11.300Z,0.00
2018-12-27T05:41:11.335Z,0.00
2018-12-27T05:42:11.382Z,0.00
2018-12-27T05:43:11.410Z,0.00
2018-12-27T05:44:11.478Z,0.00
2018-12-27T05:45:11.515Z,0.00
2018-12-27T05:46:11.577Z,0.00
2018-12-27T05:47:11.615Z,0.00
2018-12-27T05:48:11.656Z,0.00
2018-12-27T05:49:11.704Z,0.00
2018-12-27T05:50:11.761Z,0.00
2018-12-27T05:51:11.835Z,0.00
2018-12-27T05:52:11.843Z,0.00
2018-12-27T05:53:11.892Z,0.00
2018-12-27T05:54:11.924Z,0.00
2018-12-27T05:55:11.988Z,0.00
2018-12-27T05:56:12.034Z,0.00
2018-12-27T05:57:12.065Z,0.00
2018-12-27T05:58:12.116Z,0.00
2018-12-27T05:59:12.191Z,0.00
2018-12-27T06:00:12.201Z,0.00
2018-12-27T06:01:12.251Z,0.00
2018-12-27T06:02:12.305Z,0.00
2018-12-27T06:03:12.333Z,0.00
2018-12-27T06:04:12.389Z,0.00
2018-12-27T06:05:12.436Z,0.00
2018-12-27T06:06:12.495Z,0.00
2018-12-27T06:07:12.539Z,0.00
2018-12-27T06:08:12.571Z,0.00
2018-12-27T06:09:12.631Z,0.00
2018-12-27T06:10:12.673Z,0.00
2018-12-27T06:11:12.768Z,0.00
2018-12-27T06:12:12.745Z,0.00
2018-12-27T06:13:12.793Z,0.00
2018-12-27T06:14:12.848Z,0.00
2018-12-27T06:15:12.888Z,0.00
2018-12-27T06:16:12.976Z,0.00
2018-12-27T06:17:13.014Z,0.00
2018-12-27T06:18:13.024Z,0.00
2018-12-27T06:19:13.066Z,0.00
2018-12-27T06:20:13.104Z,0.00
2018-12-27T06:21:13.176Z,0.00
2018-12-27T06:22:13.212Z,0.00
2018-12-27T06:23:13.251Z,0.00
2018-12-27T06:24:13.313Z,0.00
2018-12-27T06:25:13.370Z,0.00
2018-12-27T06:26:13.633Z,0.00
2018-12-27T06:27:13.447Z,0.00
2018-12-27T06:28:13.497Z,0.00
2018-12-27T06:29:13.554Z,0.00
2018-12-27T06:30:13.588Z,0.00
2018-12-27T06:31:13.618Z,0.00
2018-12-27T06:32:13.690Z,0.00
2018-12-27T06:33:13.717Z,0.00
2018-12-27T06:34:13.754Z,0.00
2018-12-27T06:35:13.848Z,0.00
2018-12-27T06:36:13.856Z,0.00
2018-12-27T06:37:13.904Z,0.00
2018-12-27T06:38:13.936Z,0.00
2018-12-27T06:39:14.040Z,0.00
2018-12-27T06:40:14.038Z,0.00
2018-12-27T06:41:14.081Z,0.00
2018-12-27T06:42:14.156Z,0.00
2018-12-27T06:43:14.197Z,0.00
2018-12-27T06:44:14.242Z,0.00
2018-12-27T06:45:14.268Z,0.00
2018-12-27T06:46:14.300Z,0.00
2018-12-27T06:47:14.374Z,0.00
2018-12-27T06:48:14.412Z,0.00
2018-12-27T06:49:14.460Z,0.00
2018-12-27T06:50:14.505Z,0.00
2018-12-27T06:51:14.536Z,0.00
2018-12-27T06:52:14.586Z,0.00
2018-12-27T06:53:14.632Z,0.00
2018-12-27T06:54:14.681Z,0.00
2018-12-27T06:55:14.783Z,0.00
2018-12-27T06:56:14.810Z,0.00
2018-12-27T06:57:14.821Z,0.00
2018-12-27T06:58:14.904Z,0.00
2018-12-27T06:59:14.941Z,0.00
2018-12-27T07:00:14.938Z,0.00
2018-12-27T07:01:15.023Z,0.00
2018-12-27T07:02:15.034Z,0.00
2018-12-27T07:03:15.076Z,0.00
2018-12-27T07:04:15.136Z,0.00
2018-12-27T07:05:15.596Z,0.00
2018-12-27T07:06:15.201Z,0.00
2018-12-27T07:07:15.572Z,0.00
2018-12-27T07:08:15.313Z,0.00
2018-12-27T07:09:15.358Z,0.00
2018-12-27T07:10:15.415Z,0.00
2018-12-27T07:11:15.450Z,0.00
2018-12-27T07:12:15.503Z,0.00
2018-12-27T07:13:15.537Z,0.00
2018-12-27T07:14:15.598Z,0.00
2018-12-27T07:15:15.645Z,0.00
2018-12-27T07:16:15.688Z,0.00
2018-12-27T07:17:15.734Z,0.00
2018-12-27T07:18:16.058Z,0.00
2018-12-27T07:19:15.805Z,0.00
2018-12-27T07:20:15.853Z,0.00
2018-12-27T07:21:15.899Z,0.00
2018-12-27T07:22:15.960Z,0.00
2018-12-27T07:23:16.000Z,0.00
2018-12-27T07:24:16.080Z,0.00
2018-12-27T07:25:16.072Z,0.00
2018-12-27T07:26:16.115Z,0.00
2018-12-27T07:27:16.165Z,0.00
2018-12-27T07:28:16.251Z,0.00
2018-12-27T07:29:16.270Z,0.00
2018-12-27T07:30:16.307Z,0.00
2018-12-27T07:31:16.362Z,0.00
2018-12-27T07:32:16.401Z,0.00
2018-12-27T07:33:16.448Z,0.00
2018-12-27T07:34:16.490Z,0.00
2018-12-27T07:35:16.545Z,0.00
2018-12-27T07:36:16.574Z,0.00
2018-12-27T07:37:16.632Z,0.00
2018-12-27T07:38:16.682Z,0.00
2018-12-27T07:39:16.718Z,0.00
2018-12-27T07:40:16.783Z,0.00
2018-12-27T07:41:16.811Z,0.00
2018-12-27T07:42:16.888Z,0.00
2018-12-27T07:43:16.939Z,0.00
2018-12-27T07:44:16.960Z,0.00
2018-12-27T07:45:17.035Z,0.00
2018-12-27T07:46:17.032Z,0.00
2018-12-27T07:47:17.100Z,0.00
2018-12-27T07:48:17.124Z,0.00
2018-12-27T07:49:17.215Z,0.00
2018-12-27T07:50:17.224Z,0.00
2018-12-27T07:51:17.279Z,0.00
2018-12-27T07:52:17.316Z,0.00
2018-12-27T07:53:17.346Z,0.00
2018-12-27T07:54:17.402Z,0.00
2018-12-27T07:55:17.467Z,0.00
2018-12-27T07:56:17.512Z,0.00
2018-12-27T07:57:17.538Z,4.00
2018-12-27T07:58:17.590Z,0.00
2018-12-27T07:59:17.620Z,4.00
2018-12-27T08:00:17.660Z,4.00
2018-12-27T08:01:17.723Z,4.00
2018-12-27T08:02:17.758Z,8.00
2018-12-27T08:03:17.801Z,8.00
2018-12-27T08:04:17.862Z,8.00
2018-12-27T08:05:17.898Z,12.00
2018-12-27T08:06:17.938Z,16.00
2018-12-27T08:07:17.983Z,20.00
2018-12-27T08:08:18.021Z,24.00
2018-12-27T08:09:18.079Z,28.00
2018-12-27T08:10:18.125Z,36.00
2018-12-27T08:11:18.180Z,44.00
2018-12-27T08:12:18.223Z,60.00
2018-12-27T08:13:18.247Z,84.00
2018-12-27T08:14:18.362Z,108.00
2018-12-27T08:15:18.332Z,132.00
2018-12-27T08:16:18.409Z,140.00
2018-12-27T08:17:18.456Z,148.00
2018-12-27T08:18:18.473Z,148.00
2018-12-27T08:19:18.517Z,152.00
2018-12-27T08:20:18.557Z,160.00
2018-12-27T08:21:18.630Z,184.00
2018-12-27T08:22:18.674Z,216.00
2018-12-27T08:23:18.721Z,248.00
2018-12-27T08:24:18.743Z,264.00
2018-12-27T08:25:18.786Z,280.00
2018-12-27T08:26:18.865Z,300.00
2018-12-27T08:27:18.900Z,316.00
2018-12-27T08:28:18.945Z,336.00
2018-12-27T08:29:18.975Z,372.00
2018-12-27T08:30:19.035Z,396.00
2018-12-27T08:31:19.072Z,412.00
2018-12-27T08:32:19.155Z,428.00
2018-12-27T08:33:19.214Z,452.00
2018-12-27T08:34:19.227Z,476.00
2018-12-27T08:35:19.277Z,520.00
2018-12-27T08:36:19.362Z,600.00
2018-12-27T08:37:19.356Z,728.00
2018-12-27T08:38:19.399Z,964.00
2018-12-27T08:39:19.432Z,1320.00
2018-12-27T08:40:19.481Z,1640.00
2018-12-27T08:41:19.530Z,1868.00
2018-12-27T08:42:19.592Z,2144.00
2018-12-27T08:43:19.865Z,2340.00
2018-12-27T08:44:19.661Z,2848.00
2018-12-27T08:45:19.728Z,3392.00
2018-12-27T08:46:19.756Z,4252.00
2018-12-27T08:47:19.795Z,4832.00
2018-12-27T08:48:19.835Z,5364.00
2018-12-27T08:49:19.903Z,5352.00
2018-12-27T08:50:19.957Z,5468.00
2018-12-27T08:51:19.992Z,5480.00
2018-12-27T08:52:20.038Z,5716.00
2018-12-27T08:53:20.056Z,6276.00
2018-12-27T08:54:20.131Z,5940.00
2018-12-27T08:55:20.170Z,6700.00
2018-12-27T08:56:20.190Z,5884.00
2018-12-27T08:57:20.247Z,5128.00
2018-12-27T08:58:20.309Z,5476.00
2018-12-27T08:59:20.350Z,5988.00
2018-12-27T09:00:20.390Z,6324.00
2018-12-27T09:01:20.459Z,6024.00
2018-12-27T09:02:20.490Z,5548.00
2018-12-27T09:03:20.550Z,4880.00
2018-12-27T09:04:20.900Z,5396.00
2018-12-27T09:05:20.625Z,6556.00
2018-12-27T09:06:20.684Z,6004.00
2018-12-27T09:07:20.725Z,5924.00
2018-12-27T09:08:20.760Z,6600.00
2018-12-27T09:09:20.804Z,7792.00
2018-12-27T09:10:20.854Z,8284.00
2018-12-27T09:11:20.913Z,8440.00
2018-12-27T09:12:20.949Z,8748.00
2018-12-27T09:13:21.006Z,9144.00
2018-12-27T09:14:21.045Z,8820.00
2018-12-27T09:15:21.121Z,8860.00
2018-12-27T09:16:21.133Z,8820.00
2018-12-27T09:17:21.172Z,9836.00
2018-12-27T09:18:22.585Z,10832.00
2018-12-27T09:19:21.263Z,13016.00
2018-12-27T09:20:21.324Z,13800.00
2018-12-27T09:21:21.376Z,12392.00
2018-12-27T09:22:21.403Z,11612.00
2018-12-27T09:23:21.499Z,10900.00
2018-12-27T09:24:21.481Z,10796.00
2018-12-27T09:25:21.560Z,11952.00
2018-12-27T09:26:21.593Z,12188.00
2018-12-27T09:27:21.637Z,12816.00
2018-12-27T09:28:21.675Z,13580.00
2018-12-27T09:29:21.740Z,13648.00
2018-12-27T09:30:21.793Z,15936.00
2018-12-27T09:31:21.825Z,15428.00
2018-12-27T09:32:21.982Z,13260.00
2018-12-27T09:33:21.935Z,12048.00
2018-12-27T09:34:21.958Z,12084.00
2018-12-27T09:35:26.261Z,13424.00
2018-12-27T09:36:22.058Z,15288.00
2018-12-27T09:37:22.114Z,16028.00
2018-12-27T09:38:22.146Z,16816.00
2018-12-27T09:39:22.214Z,16672.00
2018-12-27T09:40:22.247Z,16844.00
2018-12-27T09:41:22.582Z,14796.00
2018-12-27T09:42:22.383Z,16176.00
2018-12-27T09:43:22.427Z,19104.00
2018-12-27T09:44:22.433Z,17952.00
2018-12-27T09:45:22.465Z,18592.00
2018-12-27T09:46:22.558Z,19200.00
2018-12-27T09:47:22.587Z,18624.00
2018-12-27T09:48:22.619Z,19296.00
2018-12-27T09:49:22.689Z,20064.00
2018-12-27T09:50:22.730Z,18080.00
2018-12-27T09:51:23.084Z,16120.00
2018-12-27T09:52:22.835Z,19264.00
2018-12-27T09:53:22.859Z,17920.00
2018-12-27T09:54:22.906Z,19200.00
2018-12-27T09:55:22.974Z,21504.00
2018-12-27T09:56:23.017Z,21248.00
2018-12-27T09:57:23.043Z,20192.00
2018-12-27T09:58:23.107Z,19296.00
2018-12-27T09:59:23.129Z,21216.00
2018-12-27T10:00:23.212Z,20320.00
2018-12-27T10:01:23.254Z,25696.00
2018-12-27T10:02:23.547Z,18528.00
2018-12-27T10:03:23.318Z,18848.00
2018-12-27T10:04:23.384Z,24288.00
2018-12-27T10:05:23.431Z,27360.00
2018-12-27T10:06:23.499Z,28672.00
2018-12-27T10:07:23.545Z,29088.00
2018-12-27T10:08:23.594Z,24800.00
2018-12-27T10:09:23.639Z,19776.00
2018-12-27T10:10:23.699Z,17632.00
2018-12-27T10:11:23.757Z,19488.00
2018-12-27T10:12:23.820Z,22784.00
2018-12-27T10:13:23.867Z,22688.00
2018-12-27T10:14:23.862Z,17188.00
2018-12-27T10:15:23.964Z,16880.00
2018-12-27T10:16:23.990Z,16500.00
2018-12-27T10:17:24.020Z,16348.00
2018-12-27T10:18:24.061Z,16748.00
2018-12-27T10:19:24.144Z,20832.00
2018-12-27T10:20:24.163Z,37824.00
2018-12-27T10:21:24.265Z,27840.00
2018-12-27T10:22:24.266Z,20800.00
2018-12-27T10:23:24.320Z,16572.00
2018-12-27T10:24:24.358Z,15476.00
2018-12-27T10:25:24.398Z,16140.00
2018-12-27T10:26:24.474Z,16244.00
2018-12-27T10:27:24.520Z,16516.00
2018-12-27T10:28:24.558Z,34176.00
2018-12-27T10:29:24.664Z,22176.00
2018-12-27T10:30:24.652Z,38944.00
2018-12-27T10:31:24.711Z,90336.00
2018-12-27T10:32:24.753Z,88288.00
2018-12-27T10:33:24.856Z,89568.00
2018-12-27T10:34:24.859Z,60288.00
2018-12-27T10:35:24.913Z,22304.00
2018-12-27T10:36:24.957Z,49536.00
2018-12-27T10:37:24.988Z,19648.00
2018-12-27T10:38:25.060Z,21440.00
2018-12-27T10:39:25.115Z,31392.00
2018-12-27T10:40:25.162Z,91168.00
2018-12-27T10:41:25.203Z,86144.00
2018-12-27T10:42:25.256Z,83104.00
2018-12-27T10:43:25.301Z,23264.00
2018-12-27T10:44:25.350Z,27328.00
2018-12-27T10:45:25.429Z,91808.00
2018-12-27T10:46:25.547Z,91648.00
2018-12-27T10:47:25.521Z,91712.00
2018-12-27T10:48:25.573Z,89120.00
2018-12-27T10:49:25.662Z,90944.00
2018-12-27T10:50:25.663Z,25824.00
2018-12-27T10:51:25.712Z,24736.00
2018-12-27T10:52:25.789Z,52960.00
2018-12-27T10:53:25.840Z,21344.00
2018-12-27T10:54:25.894Z,48352.00
2018-12-27T10:55:25.926Z,23072.00
2018-12-27T10:56:25.993Z,28256.00
2018-12-27T10:57:26.036Z,35712.00
2018-12-27T10:58:26.112Z,30976.00
2018-12-27T10:59:26.133Z,25696.00
2018-12-27T11:00:26.213Z,26144.00
2018-12-27T11:01:26.265Z,30880.00
2018-12-27T11:02:26.323Z,77632.00
2018-12-27T11:03:30.438Z,34816.00
2018-12-27T11:04:26.430Z,106176.00
2018-12-27T11:05:26.475Z,100320.00
2018-12-27T11:06:26.519Z,100096.00
2018-12-27T11:07:26.587Z,67360.00
2018-12-27T11:08:26.634Z,84768.00
2018-12-27T11:09:26.725Z,105472.00
2018-12-27T11:10:26.718Z,71328.00
2018-12-27T11:11:26.780Z,61440.00
2018-12-27T11:12:26.880Z,45696.00
2018-12-27T11:13:26.923Z,46144.00
2018-12-27T11:14:26.933Z,108192.00
2018-12-27T11:15:27.005Z,33888.00
2018-12-27T11:16:27.048Z,59296.00
2018-12-27T11:17:27.102Z,44128.00
2018-12-27T11:18:28.494Z,39968.00
2018-12-27T11:19:27.204Z,50496.00
2018-12-27T11:20:27.318Z,125376.00
2018-12-27T11:21:27.337Z,37184.00
2018-12-27T11:22:27.384Z,47392.00
2018-12-27T11:23:27.433Z,35648.00
2018-12-27T11:24:27.465Z,35232.00
2018-12-27T11:25:27.550Z,44544.00
2018-12-27T11:26:27.635Z,45216.00
2018-12-27T11:27:27.632Z,60832.00
2018-12-27T11:28:27.694Z,45280.00
2018-12-27T11:29:27.752Z,76192.00
2018-12-27T11:30:27.794Z,38336.00
2018-12-27T11:31:27.868Z,31936.00
2018-12-27T11:32:27.908Z,30560.00
2018-12-27T11:33:27.966Z,35104.00
2018-12-27T11:34:28.030Z,27136.00
2018-12-27T11:35:28.077Z,26368.00
2018-12-27T11:36:28.111Z,26944.00
2018-12-27T11:37:28.200Z,36704.00
2018-12-27T11:38:28.255Z,42848.00
2018-12-27T11:39:28.307Z,47520.00
2018-12-27T11:40:28.359Z,70240.00
2018-12-27T11:41:28.402Z,64544.00
2018-12-27T11:42:28.431Z,112160.00
2018-12-27T11:43:28.507Z,46784.00
2018-12-27T11:44:28.553Z,76832.00
2018-12-27T11:45:28.617Z,55616.00
2018-12-27T11:46:28.639Z,40608.00
2018-12-27T11:47:28.717Z,52384.00
2018-12-27T11:48:28.778Z,47904.00
2018-12-27T11:49:28.815Z,43552.00
2018-12-27T11:50:28.877Z,36160.00
2018-12-27T11:51:28.935Z,31968.00
2018-12-27T11:52:28.970Z,32736.00
2018-12-27T11:53:29.039Z,35072.00
2018-12-27T11:54:29.095Z,55456.00
2018-12-27T11:55:29.145Z,44768.00
2018-12-27T11:56:29.240Z,40128.00
2018-12-27T11:57:29.272Z,35968.00
2018-12-27T11:58:29.319Z,32896.00
2018-12-27T11:59:29.366Z,30272.00
2018-12-27T12:00:29.424Z,28160.00
2018-12-27T12:01:29.492Z,26944.00
2018-12-27T12:02:31.264Z,27776.00
2018-12-27T12:03:29.561Z,29888.00
2018-12-27T12:04:29.646Z,32288.00
2018-12-27T12:05:29.697Z,35584.00
2018-12-27T12:06:29.730Z,37632.00
2018-12-27T12:07:29.808Z,43712.00
2018-12-27T12:08:29.849Z,114496.00
2018-12-27T12:09:29.895Z,63616.00
2018-12-27T12:10:29.988Z,117376.00
2018-12-27T12:11:29.998Z,75200.00
2018-12-27T12:12:30.075Z,47424.00
2018-12-27T12:13:30.131Z,48608.00
2018-12-27T12:14:30.160Z,39552.00
2018-12-27T12:15:30.208Z,35200.00
2018-12-27T12:16:30.268Z,32544.00
2018-12-27T12:17:30.337Z,31456.00
2018-12-27T12:18:30.391Z,31296.00
2018-12-27T12:19:30.460Z,30848.00
2018-12-27T12:20:30.538Z,31008.00
2018-12-27T12:21:30.537Z,31808.00
2018-12-27T12:22:30.583Z,33152.00
2018-12-27T12:23:30.650Z,33024.00
2018-12-27T12:24:30.701Z,33024.00
2018-12-27T12:25:30.763Z,33184.00
2018-12-27T12:26:30.809Z,34112.00
2018-12-27T12:27:30.904Z,41600.00
2018-12-27T12:28:30.904Z,35424.00
2018-12-27T12:29:30.979Z,31776.00
2018-12-27T12:30:31.005Z,31456.00
2018-12-27T12:31:31.123Z,31776.00
2018-12-27T12:32:31.118Z,31424.00
2018-12-27T12:33:31.181Z,30144.00
2018-12-27T12:34:31.229Z,29568.00
2018-12-27T12:35:31.301Z,28896.00
2018-12-27T12:36:31.335Z,27584.00
2018-12-27T12:37:31.401Z,26976.00
2018-12-27T12:38:31.450Z,27712.00
2018-12-27T12:39:31.514Z,29920.00
2018-12-27T12:40:31.571Z,34016.00
2018-12-27T12:41:31.618Z,32128.00
2018-12-27T12:42:33.173Z,32864.00
2018-12-27T12:43:31.748Z,34464.00
2018-12-27T12:44:31.759Z,34464.00
2018-12-27T12:45:31.823Z,32672.00